createdAt,value
2023-10-14T00:02:11.760Z,21.5
2023-10-14T00:07:16.867Z,21.5
2023-10-14T00:12:23.059Z,21.7
2023-10-14T00:17:29.046Z,21
2023-10-14T00:22:35.118Z,20.1
2023-10-14T00:27:41.229Z,19.4
2023-10-14T00:32:47.297Z,19.1
2023-10-14T00:37:53.412Z,19
2023-10-14T00:42:59.522Z,19.1
2023-10-14T00:48:05.603Z,19.4
2023-10-14T00:53:11.695Z,19.5
2023-10-14T00:58:17.791Z,19.6
2023-10-14T01:03:23.892Z,19.6
2023-10-14T01:08:29.978Z,19.7
2023-10-14T01:13:35.098Z,19.9
2023-10-14T01:18:41.188Z,20.1
2023-10-14T01:23:47.290Z,20.2
2023-10-14T01:28:53.371Z,20.2
2023-10-14T01:33:59.469Z,20.1
2023-10-14T01:39:05.569Z,20
2023-10-14T01:44:11.682Z,19.9
2023-10-14T01:49:17.750Z,19.9
2023-10-14T01:54:23.986Z,19.8
2023-10-14T01:59:29.946Z,19.8
2023-10-14T02:04:36.055Z,20
2023-10-14T02:09:42.267Z,20.1
2023-10-14T02:14:48.231Z,20.3
2023-10-14T02:19:53.310Z,20.3
2023-10-14T02:24:59.440Z,20.1
2023-10-14T02:30:05.578Z,20
2023-10-14T02:35:11.608Z,19.9
2023-10-14T02:40:17.703Z,20
2023-10-14T02:45:23.864Z,20.2
2023-10-14T02:50:29.878Z,20.4
2023-10-14T02:55:36.099Z,20.5
2023-10-14T03:00:42.073Z,20.8
2023-10-14T03:05:48.186Z,20.9
2023-10-14T03:10:54.563Z,21
2023-10-14T03:16:00.386Z,20.9
2023-10-14T03:21:06.449Z,21
2023-10-14T03:26:11.570Z,20.9
2023-10-14T03:31:17.652Z,20.8
2023-10-14T03:36:23.740Z,20.7
2023-10-14T03:41:29.844Z,20.8
2023-10-14T03:46:35.939Z,20.6
2023-10-14T03:51:42.185Z,20.6
2023-10-14T03:56:48.132Z,21
2023-10-14T04:01:54.233Z,21.3
2023-10-14T04:07:00.328Z,21.4
2023-10-14T04:12:06.404Z,21.6
2023-10-14T04:17:12.505Z,21.5
2023-10-14T04:22:18.604Z,21.6
2023-10-14T04:27:24.699Z,21.7
2023-10-14T04:32:29.812Z,21.8
2023-10-14T04:37:35.887Z,21.9
2023-10-14T04:42:42.004Z,22
2023-10-14T04:47:48.102Z,21.9
2023-10-14T04:52:54.177Z,21.8
2023-10-14T04:58:00.274Z,21.8
2023-10-14T05:03:06.373Z,21.7
2023-10-14T05:08:12.470Z,21.6
2023-10-14T05:13:18.554Z,20.4
2023-10-14T05:18:24.636Z,18.8
2023-10-14T05:23:30.748Z,18.5
2023-10-14T05:28:36.835Z,18.5
2023-10-14T05:33:42.946Z,18.4
2023-10-14T05:38:48.041Z,18.4
2023-10-14T05:43:54.204Z,18.4
2023-10-14T05:49:00.219Z,18.4
2023-10-14T05:54:06.315Z,18.3
2023-10-14T05:59:12.421Z,17.8
2023-10-14T06:04:18.502Z,16.4
2023-10-14T06:09:24.644Z,15.1
2023-10-14T06:14:30.695Z,14.6
2023-10-14T06:19:36.782Z,14.3
2023-10-14T06:24:42.884Z,14.1
2023-10-14T06:29:48.974Z,13.9
2023-10-14T06:34:55.074Z,13.7
2023-10-14T06:40:01.163Z,13.8
2023-10-14T06:45:06.358Z,13.7
2023-10-14T06:50:12.383Z,13.6
2023-10-14T06:55:17.671Z,13.6
2023-10-14T07:00:22.725Z,13.5
2023-10-14T07:05:28.698Z,13.6
2023-10-14T07:10:34.833Z,13.6
2023-10-14T07:15:40.944Z,13.7
2023-10-14T07:20:46.980Z,13.9
2023-10-14T07:25:53.087Z,13.9
2023-10-14T07:30:59.174Z,13.9
2023-10-14T07:36:05.390Z,13.9
2023-10-14T07:46:17.537Z,13.5
2023-10-14T07:51:23.594Z,13.3
2023-10-14T07:56:29.669Z,13.1
2023-10-14T08:01:35.737Z,13.1
2023-10-14T08:06:40.857Z,13.2
2023-10-14T08:11:46.947Z,13.1
2023-10-14T08:16:53.046Z,12.9
2023-10-14T08:21:59.133Z,13.1
2023-10-14T08:27:05.241Z,13.6
2023-10-14T08:32:11.327Z,13.7
2023-10-14T08:37:17.430Z,13.7
2023-10-14T08:42:22.536Z,13.8
2023-10-14T08:47:27.644Z,13.9
2023-10-14T08:52:33.737Z,14.1
2023-10-14T08:57:39.927Z,14.2
2023-10-14T09:02:46.041Z,14.1
2023-10-14T09:07:52.032Z,14.3
2023-10-14T09:12:58.221Z,14.8
2023-10-14T09:18:04.273Z,14.5
2023-10-14T09:23:10.339Z,14.3
2023-10-14T09:28:16.459Z,16
2023-10-14T09:33:22.540Z,17.9
2023-10-14T09:38:28.634Z,17.8
2023-10-14T09:43:34.686Z,18.2
2023-10-14T09:48:40.874Z,18.8
2023-10-14T09:53:45.931Z,20.2
2023-10-14T09:58:52.001Z,20.7
2023-10-14T10:03:58.092Z,21.3
2023-10-14T10:09:04.238Z,21.5
2023-10-14T10:14:10.362Z,22.2
2023-10-14T10:19:16.528Z,21.2
2023-10-14T10:24:22.467Z,21.5
2023-10-14T10:29:28.566Z,21.3
2023-10-14T10:34:34.658Z,22.1
2023-10-14T10:39:40.754Z,22.6
2023-10-14T10:44:46.850Z,23.4
2023-10-14T10:49:52.929Z,21.8
2023-10-14T10:54:59.038Z,18.4
2023-10-14T11:00:04.127Z,17.3
2023-10-14T11:05:10.361Z,17.2
2023-10-14T11:10:16.334Z,17
2023-10-14T11:15:22.405Z,16.4
2023-10-14T11:20:28.529Z,15.9
2023-10-14T11:25:34.605Z,15.9
2023-10-14T11:30:40.704Z,16.2
2023-10-14T11:35:46.799Z,16.4
2023-10-14T11:40:52.973Z,16.3
2023-10-14T11:45:59.000Z,16
2023-10-14T11:51:05.104Z,15.7
2023-10-14T11:56:11.178Z,15.4
2023-10-14T12:01:17.297Z,15.7
2023-10-14T12:06:22.379Z,16.3
2023-10-14T12:11:28.490Z,16.5
2023-10-14T12:16:34.592Z,16.6
2023-10-14T12:21:40.675Z,16.7
2023-10-14T12:26:46.769Z,16.8
2023-10-14T12:31:52.854Z,16.7
2023-10-14T12:36:59.045Z,16.7
2023-10-14T12:42:04.073Z,17
2023-10-14T12:47:09.168Z,17.7
2023-10-14T12:52:14.288Z,17.8
2023-10-14T12:57:20.402Z,17.3
2023-10-14T13:02:26.486Z,16.8
2023-10-14T13:07:32.566Z,16.8
2023-10-14T13:12:38.708Z,17.7
2023-10-14T13:17:44.757Z,17.4
2023-10-14T13:22:50.848Z,17.4
2023-10-14T13:27:56.991Z,17.7
2023-10-14T13:33:03.038Z,18.4
2023-10-14T13:38:09.183Z,17.9
2023-10-14T13:43:15.392Z,17.8
2023-10-14T13:48:21.337Z,18
2023-10-14T13:53:27.426Z,17.4
2023-10-14T13:58:32.565Z,16.7
2023-10-14T14:03:38.620Z,16.2
2023-10-14T14:08:44.734Z,16.1
2023-10-14T14:13:50.819Z,16
2023-10-14T14:18:56.902Z,16.1
2023-10-14T14:24:03.020Z,16.4
2023-10-14T14:29:09.105Z,16.9
2023-10-14T14:34:15.197Z,16.7
2023-10-14T14:39:21.346Z,16.6
2023-10-14T14:44:27.375Z,16.3
2023-10-14T14:49:33.471Z,15.9
2023-10-14T14:54:39.579Z,15.6
2023-10-14T14:59:45.717Z,15.4
2023-10-14T15:04:50.771Z,15.1
2023-10-14T15:09:56.949Z,14.9
2023-10-14T15:15:03.050Z,15.1
2023-10-14T15:20:09.171Z,14.9
2023-10-14T15:25:15.172Z,14.7
2023-10-14T15:30:21.244Z,14.6
2023-10-14T15:35:27.346Z,14.7
2023-10-14T15:40:33.432Z,14.8
2023-10-14T15:45:39.514Z,14.8
2023-10-14T15:50:45.652Z,15
2023-10-14T15:55:51.794Z,14.9
2023-10-14T16:00:57.819Z,14.5
2023-10-14T16:06:02.918Z,14.1
2023-10-14T16:11:09.018Z,13.8
2023-10-14T16:16:15.362Z,13.6
2023-10-14T16:21:21.225Z,13.3
2023-10-14T16:26:27.316Z,13.2
2023-10-14T16:31:33.398Z,13.2
2023-10-14T16:36:39.542Z,13.1
2023-10-14T16:41:45.592Z,13.1
2023-10-14T16:46:51.767Z,13.1
2023-10-14T16:51:57.826Z,13.1
2023-10-14T16:57:03.887Z,13.2
2023-10-14T17:02:09.973Z,13.3
2023-10-14T17:07:16.054Z,13.4
2023-10-14T17:12:21.188Z,13.3
2023-10-14T17:17:27.272Z,13.4
2023-10-14T17:22:33.365Z,13.3
2023-10-14T17:27:39.464Z,13.1
2023-10-14T17:32:45.548Z,12.9
2023-10-14T17:37:51.650Z,12.8
2023-10-14T17:42:57.739Z,12.8
2023-10-14T17:48:03.906Z,12.8
2023-10-14T17:53:09.934Z,12.8
2023-10-14T17:58:16.026Z,12.8
2023-10-14T18:03:22.120Z,12.8
2023-10-14T18:08:28.243Z,12.8
2023-10-14T18:13:34.379Z,12.6
2023-10-14T18:18:39.450Z,11.9
2023-10-14T18:23:45.825Z,11.3
2023-10-14T18:28:51.703Z,10.8
2023-10-14T18:33:58.012Z,10.5
2023-10-14T18:39:03.811Z,10.4
2023-10-14T18:44:10.015Z,10.2
2023-10-14T18:49:15.983Z,10.1
2023-10-14T18:54:22.092Z,9.9
2023-10-14T18:59:28.188Z,9.8
2023-10-14T19:04:34.371Z,9.7
2023-10-14T19:09:40.448Z,9.5
2023-10-14T19:14:46.499Z,9.5
2023-10-14T19:19:52.583Z,9.3
2023-10-14T19:24:57.688Z,9.3
2023-10-14T19:30:03.780Z,9.3
2023-10-14T19:35:09.879Z,9.3
2023-10-14T19:40:15.978Z,9.4
2023-10-14T19:45:22.110Z,9.5
2023-10-14T19:50:28.204Z,9.5
2023-10-14T19:55:34.285Z,9.6
2023-10-14T20:00:40.406Z,9.6
2023-10-14T20:05:46.482Z,9.6
2023-10-14T20:10:52.590Z,9.5
2023-10-14T20:15:58.691Z,9.5
2023-10-14T20:21:04.745Z,9.5
2023-10-14T20:26:10.852Z,9.5
2023-10-14T20:31:15.957Z,9.5
2023-10-14T20:36:22.072Z,9.6
2023-10-14T20:41:28.143Z,9.6
2023-10-14T20:46:34.237Z,9.6
2023-10-14T20:51:40.340Z,9.7
2023-10-14T20:56:46.425Z,9.7
2023-10-14T21:01:52.525Z,9.8
2023-10-14T21:06:58.615Z,9.8
2023-10-14T21:12:04.719Z,9.8
2023-10-14T21:17:10.807Z,9.8
2023-10-14T21:22:16.898Z,9.8
2023-10-14T21:27:23.090Z,9.7
2023-10-14T21:32:29.117Z,9.7
2023-10-14T21:37:34.229Z,9.6
2023-10-14T21:42:40.323Z,9.4
2023-10-14T21:47:46.401Z,9.3
2023-10-14T21:52:52.656Z,9.2
2023-10-14T21:57:58.614Z,9.1
2023-10-14T22:03:04.714Z,9
2023-10-14T22:08:10.808Z,9.1
2023-10-14T22:13:16.914Z,8.9
2023-10-14T22:18:23.036Z,8.8
2023-10-14T22:23:29.102Z,8.8
2023-10-14T22:28:35.198Z,8.8
2023-10-14T22:33:41.302Z,8.7
2023-10-14T22:38:47.405Z,8.5
2023-10-14T22:43:52.505Z,8.4
2023-10-14T22:48:58.603Z,8.3
2023-10-14T22:54:04.715Z,8.3
2023-10-14T22:59:10.799Z,8.3
2023-10-14T23:04:16.930Z,8.3
2023-10-14T23:09:22.965Z,8.3
2023-10-14T23:14:29.051Z,8.2
2023-10-14T23:19:35.159Z,8.1
2023-10-14T23:24:41.254Z,8
2023-10-14T23:29:47.344Z,8
2023-10-14T23:34:53.446Z,8.1
2023-10-14T23:39:59.581Z,8.1
2023-10-14T23:45:05.640Z,8.1
2023-10-14T23:50:10.748Z,8.1
2023-10-14T23:55:16.847Z,8.1
